sensor_id;sensor_type;location;lat;lon;timestamp;P1;durP1;ratioP1;P2;durP2;ratioP2
21615;SDS011;10970;48.714;9.584;2022-09-09T00:00:16;4.77;;;2.93;;
21615;SDS011;10970;48.714;9.584;2022-09-09T00:02:46;1.90;;;1.80;;
21615;SDS011;10970;48.714;9.584;2022-09-09T00:05:31;2.60;;;1.90;;
21615;SDS011;10970;48.714;9.584;2022-09-09T00:08:19;3.50;;;3.20;;
21615;SDS011;10970;48.714;9.584;2022-09-09T00:10:49;3.03;;;2.70;;
21615;SDS011;10970;48.714;9.584;2022-09-09T00:13:34;2.80;;;2.33;;
21615;SDS011;10970;48.714;9.584;2022-09-09T00:16:12;2.93;;;2.50;;
21615;SDS011;10970;48.714;9.584;2022-09-09T00:19:02;3.87;;;2.43;;
21615;SDS011;10970;48.714;9.584;2022-09-09T00:21:39;3.37;;;3.07;;
21615;SDS011;10970;48.714;9.584;2022-09-09T00:24:17;2.93;;;2.27;;
21615;SDS011;10970;48.714;9.584;2022-09-09T00:27:17;3.00;;;1.93;;
21615;SDS011;10970;48.714;9.584;2022-09-09T00:30:12;4.50;;;2.33;;
21615;SDS011;10970;48.714;9.584;2022-09-09T00:32:39;3.10;;;2.30;;
21615;SDS011;10970;48.714;9.584;2022-09-09T00:35:22;2.23;;;1.60;;
21615;SDS011;10970;48.714;9.584;2022-09-09T00:37:56;2.33;;;2.00;;
21615;SDS011;10970;48.714;9.584;2022-09-09T00:42:57;5.63;;;2.40;;
21615;SDS011;10970;48.714;9.584;2022-09-09T00:48:13;2.97;;;2.43;;
21615;SDS011;10970;48.714;9.584;2022-09-09T00:50:47;2.73;;;2.00;;
21615;SDS011;10970;48.714;9.584;2022-09-09T00:58:27;5.03;;;2.10;;
21615;SDS011;10970;48.714;9.584;2022-09-09T01:01:03;4.00;;;2.63;;
21615;SDS011;10970;48.714;9.584;2022-09-09T01:06:20;2.47;;;2.30;;
21615;SDS011;10970;48.714;9.584;2022-09-09T01:14:45;2.00;;;1.90;;
21615;SDS011;10970;48.714;9.584;2022-09-09T01:28:38;1.80;;;1.60;;
21615;SDS011;10970;48.714;9.584;2022-09-09T01:31:05;2.30;;;1.90;;
21615;SDS011;10970;48.714;9.584;2022-09-09T01:33:33;3.50;;;1.80;;
21615;SDS011;10970;48.714;9.584;2022-09-09T01:38:28;3.23;;;2.10;;
21615;SDS011;10970;48.714;9.584;2022-09-09T01:40:54;2.37;;;1.50;;
21615;SDS011;10970;48.714;9.584;2022-09-09T01:43:21;2.80;;;1.50;;
21615;SDS011;10970;48.714;9.584;2022-09-09T01:45:47;2.20;;;2.00;;
21615;SDS011;10970;48.714;9.584;2022-09-09T01:48:16;2.07;;;1.97;;
21615;SDS011;10970;48.714;9.584;2022-09-09T01:50:42;2.57;;;2.00;;
21615;SDS011;10970;48.714;9.584;2022-09-09T01:53:08;7.33;;;2.10;;
21615;SDS011;10970;48.714;9.584;2022-09-09T01:55:38;2.00;;;1.80;;
21615;SDS011;10970;48.714;9.584;2022-09-09T02:01:06;2.23;;;1.40;;
21615;SDS011;10970;48.714;9.584;2022-09-09T02:03:34;5.13;;;2.20;;
21615;SDS011;10970;48.714;9.584;2022-09-09T02:11:18;2.53;;;1.60;;
21615;SDS011;10970;48.714;9.584;2022-09-09T02:13:46;1.93;;;1.83;;
21615;SDS011;10970;48.714;9.584;2022-09-09T02:19:01;2.80;;;2.10;;
21615;SDS011;10970;48.714;9.584;2022-09-09T02:21:34;2.73;;;2.00;;
21615;SDS011;10970;48.714;9.584;2022-09-09T02:24:02;1.60;;;1.50;;
21615;SDS011;10970;48.714;9.584;2022-09-09T02:26:32;4.90;;;2.20;;
21615;SDS011;10970;48.714;9.584;2022-09-09T02:29:02;4.27;;;1.63;;
21615;SDS011;10970;48.714;9.584;2022-09-09T02:31:30;1.80;;;1.47;;
21615;SDS011;10970;48.714;9.584;2022-09-09T02:33:58;1.20;;;1.20;;
21615;SDS011;10970;48.714;9.584;2022-09-09T02:36:27;5.80;;;1.37;;
21615;SDS011;10970;48.714;9.584;2022-09-09T02:38:56;1.70;;;1.60;;
21615;SDS011;10970;48.714;9.584;2022-09-09T02:41:35;3.10;;;1.70;;
21615;SDS011;10970;48.714;9.584;2022-09-09T02:44:08;1.90;;;1.70;;
21615;SDS011;10970;48.714;9.584;2022-09-09T02:52:15;1.30;;;1.20;;
21615;SDS011;10970;48.714;9.584;2022-09-09T02:54:43;1.40;;;1.30;;
21615;SDS011;10970;48.714;9.584;2022-09-09T02:57:25;1.80;;;1.57;;
21615;SDS011;10970;48.714;9.584;2022-09-09T02:59:53;5.73;;;1.30;;
21615;SDS011;10970;48.714;9.584;2022-09-09T03:02:21;5.50;;;1.43;;
21615;SDS011;10970;48.714;9.584;2022-09-09T03:04:47;3.20;;;2.20;;
21615;SDS011;10970;48.714;9.584;2022-09-09T03:07:16;4.63;;;2.27;;
21615;SDS011;10970;48.714;9.584;2022-09-09T03:09:43;1.57;;;1.47;;
21615;SDS011;10970;48.714;9.584;2022-09-09T03:12:09;2.80;;;1.63;;
21615;SDS011;10970;48.714;9.584;2022-09-09T03:14:36;3.77;;;1.90;;
21615;SDS011;10970;48.714;9.584;2022-09-09T03:17:03;2.50;;;1.50;;
21615;SDS011;10970;48.714;9.584;2022-09-09T03:19:29;5.63;;;1.70;;
21615;SDS011;10970;48.714;9.584;2022-09-09T03:21:55;2.50;;;2.00;;
21615;SDS011;10970;48.714;9.584;2022-09-09T03:24:21;9.03;;;1.90;;
21615;SDS011;10970;48.714;9.584;2022-09-09T03:26:47;2.93;;;1.73;;
21615;SDS011;10970;48.714;9.584;2022-09-09T03:29:15;1.50;;;1.40;;
21615;SDS011;10970;48.714;9.584;2022-09-09T03:31:42;4.03;;;1.90;;
21615;SDS011;10970;48.714;9.584;2022-09-09T03:34:08;6.20;;;1.93;;
21615;SDS011;10970;48.714;9.584;2022-09-09T03:36:34;2.40;;;2.00;;
21615;SDS011;10970;48.714;9.584;2022-09-09T03:39:00;8.83;;;1.47;;
21615;SDS011;10970;48.714;9.584;2022-09-09T03:41:26;5.93;;;1.93;;
21615;SDS011;10970;48.714;9.584;2022-09-09T03:43:52;2.30;;;1.67;;
21615;SDS011;10970;48.714;9.584;2022-09-09T03:46:22;1.50;;;1.40;;
21615;SDS011;10970;48.714;9.584;2022-09-09T03:48:49;1.80;;;1.70;;
21615;SDS011;10970;48.714;9.584;2022-09-09T03:51:17;3.60;;;1.33;;
21615;SDS011;10970;48.714;9.584;2022-09-09T03:53:43;2.30;;;1.87;;
21615;SDS011;10970;48.714;9.584;2022-09-09T03:56:09;1.73;;;1.63;;
21615;SDS011;10970;48.714;9.584;2022-09-09T03:58:36;3.13;;;2.10;;
21615;SDS011;10970;48.714;9.584;2022-09-09T04:01:03;2.17;;;1.63;;
21615;SDS011;10970;48.714;9.584;2022-09-09T04:03:31;6.00;;;2.33;;
21615;SDS011;10970;48.714;9.584;2022-09-09T04:05:58;2.33;;;2.10;;
21615;SDS011;10970;48.714;9.584;2022-09-09T04:08:28;3.23;;;2.23;;
21615;SDS011;10970;48.714;9.584;2022-09-09T04:10:56;4.30;;;1.80;;
21615;SDS011;10970;48.714;9.584;2022-09-09T04:13:22;3.33;;;1.77;;
21615;SDS011;10970;48.714;9.584;2022-09-09T04:15:56;2.30;;;1.97;;
21615;SDS011;10970;48.714;9.584;2022-09-09T04:18:23;2.50;;;1.67;;
21615;SDS011;10970;48.714;9.584;2022-09-09T04:20:49;1.77;;;1.67;;
21615;SDS011;10970;48.714;9.584;2022-09-09T04:23:16;7.80;;;1.93;;
21615;SDS011;10970;48.714;9.584;2022-09-09T04:25:50;3.17;;;2.40;;
21615;SDS011;10970;48.714;9.584;2022-09-09T04:28:18;9.00;;;2.47;;
21615;SDS011;10970;48.714;9.584;2022-09-09T04:30:45;2.80;;;1.90;;
21615;SDS011;10970;48.714;9.584;2022-09-09T04:33:12;2.80;;;2.23;;
21615;SDS011;10970;48.714;9.584;2022-09-09T04:35:38;7.10;;;2.30;;
21615;SDS011;10970;48.714;9.584;2022-09-09T04:38:04;2.40;;;2.10;;
21615;SDS011;10970;48.714;9.584;2022-09-09T04:40:34;2.23;;;2.00;;
21615;SDS011;10970;48.714;9.584;2022-09-09T04:43:00;2.83;;;2.43;;
21615;SDS011;10970;48.714;9.584;2022-09-09T04:45:28;5.10;;;3.27;;
21615;SDS011;10970;48.714;9.584;2022-09-09T04:47:53;4.00;;;2.03;;
21615;SDS011;10970;48.714;9.584;2022-09-09T04:50:19;4.50;;;2.43;;
21615;SDS011;10970;48.714;9.584;2022-09-09T04:52:45;2.10;;;1.90;;
21615;SDS011;10970;48.714;9.584;2022-09-09T04:55:10;3.93;;;2.00;;
21615;SDS011;10970;48.714;9.584;2022-09-09T04:57:38;2.23;;;1.87;;
21615;SDS011;10970;48.714;9.584;2022-09-09T05:00:04;3.57;;;2.27;;
21615;SDS011;10970;48.714;9.584;2022-09-09T05:02:30;3.13;;;2.40;;
21615;SDS011;10970;48.714;9.584;2022-09-09T05:04:57;3.50;;;2.10;;
21615;SDS011;10970;48.714;9.584;2022-09-09T05:07:23;2.53;;;2.33;;
21615;SDS011;10970;48.714;9.584;2022-09-09T05:09:51;3.00;;;2.03;;
21615;SDS011;10970;48.714;9.584;2022-09-09T05:12:16;3.47;;;2.30;;
21615;SDS011;10970;48.714;9.584;2022-09-09T05:14:42;2.90;;;2.70;;
21615;SDS011;10970;48.714;9.584;2022-09-09T05:17:08;4.40;;;2.03;;
21615;SDS011;10970;48.714;9.584;2022-09-09T05:19:34;2.47;;;2.23;;
21615;SDS011;10970;48.714;9.584;2022-09-09T05:22:00;2.97;;;2.77;;
21615;SDS011;10970;48.714;9.584;2022-09-09T05:24:26;3.57;;;2.77;;
21615;SDS011;10970;48.714;9.584;2022-09-09T05:26:52;3.60;;;3.13;;
21615;SDS011;10970;48.714;9.584;2022-09-09T05:29:17;3.53;;;3.00;;
21615;SDS011;10970;48.714;9.584;2022-09-09T05:31:46;3.40;;;3.10;;
21615;SDS011;10970;48.714;9.584;2022-09-09T05:34:12;3.13;;;2.83;;
21615;SDS011;10970;48.714;9.584;2022-09-09T05:36:37;2.97;;;2.77;;
21615;SDS011;10970;48.714;9.584;2022-09-09T05:39:03;2.60;;;2.40;;
21615;SDS011;10970;48.714;9.584;2022-09-09T05:41:29;2.57;;;2.37;;
21615;SDS011;10970;48.714;9.584;2022-09-09T05:43:56;3.13;;;2.77;;
21615;SDS011;10970;48.714;9.584;2022-09-09T05:46:24;3.47;;;2.13;;
21615;SDS011;10970;48.714;9.584;2022-09-09T05:48:51;3.83;;;2.40;;
21615;SDS011;10970;48.714;9.584;2022-09-09T05:51:21;4.93;;;2.00;;
21615;SDS011;10970;48.714;9.584;2022-09-09T05:53:49;4.70;;;2.93;;
21615;SDS011;10970;48.714;9.584;2022-09-09T05:56:20;3.67;;;3.37;;
21615;SDS011;10970;48.714;9.584;2022-09-09T05:58:49;4.33;;;2.40;;
21615;SDS011;10970;48.714;9.584;2022-09-09T06:03:42;3.83;;;3.00;;
21615;SDS011;10970;48.714;9.584;2022-09-09T06:06:09;3.97;;;2.50;;
21615;SDS011;10970;48.714;9.584;2022-09-09T06:08:37;4.40;;;2.90;;
21615;SDS011;10970;48.714;9.584;2022-09-09T06:11:08;16.40;;;3.10;;
21615;SDS011;10970;48.714;9.584;2022-09-09T06:13:36;2.53;;;2.27;;
21615;SDS011;10970;48.714;9.584;2022-09-09T06:16:05;3.40;;;1.70;;
21615;SDS011;10970;48.714;9.584;2022-09-09T06:18:33;9.20;;;2.40;;
21615;SDS011;10970;48.714;9.584;2022-09-09T06:20:59;3.70;;;1.77;;
21615;SDS011;10970;48.714;9.584;2022-09-09T06:23:31;3.20;;;2.27;;
21615;SDS011;10970;48.714;9.584;2022-09-09T06:26:22;6.00;;;2.47;;
21615;SDS011;10970;48.714;9.584;2022-09-09T06:28:48;2.90;;;2.60;;
21615;SDS011;10970;48.714;9.584;2022-09-09T06:31:16;2.90;;;2.70;;
21615;SDS011;10970;48.714;9.584;2022-09-09T06:33:47;9.83;;;3.40;;
21615;SDS011;10970;48.714;9.584;2022-09-09T06:36:18;4.33;;;3.13;;
21615;SDS011;10970;48.714;9.584;2022-09-09T06:39:00;4.03;;;3.60;;
21615;SDS011;10970;48.714;9.584;2022-09-09T06:41:27;3.80;;;2.50;;
21615;SDS011;10970;48.714;9.584;2022-09-09T06:43:54;3.50;;;2.67;;
21615;SDS011;10970;48.714;9.584;2022-09-09T06:46:24;3.37;;;3.07;;
21615;SDS011;10970;48.714;9.584;2022-09-09T06:48:54;2.60;;;2.40;;
21615;SDS011;10970;48.714;9.584;2022-09-09T06:51:21;3.10;;;2.80;;
21615;SDS011;10970;48.714;9.584;2022-09-09T06:53:51;2.50;;;2.20;;
21615;SDS011;10970;48.714;9.584;2022-09-09T06:56:20;4.83;;;2.40;;
21615;SDS011;10970;48.714;9.584;2022-09-09T06:58:48;4.10;;;3.27;;
21615;SDS011;10970;48.714;9.584;2022-09-09T07:01:16;2.80;;;2.40;;
21615;SDS011;10970;48.714;9.584;2022-09-09T07:03:45;2.40;;;2.20;;
21615;SDS011;10970;48.714;9.584;2022-09-09T07:06:19;4.13;;;3.13;;
21615;SDS011;10970;48.714;9.584;2022-09-09T07:08:50;3.03;;;2.70;;
21615;SDS011;10970;48.714;9.584;2022-09-09T07:11:18;7.67;;;2.87;;
21615;SDS011;10970;48.714;9.584;2022-09-09T07:13:44;5.60;;;2.90;;
21615;SDS011;10970;48.714;9.584;2022-09-09T07:16:12;4.53;;;2.83;;
21615;SDS011;10970;48.714;9.584;2022-09-09T07:18:40;4.20;;;3.23;;
21615;SDS011;10970;48.714;9.584;2022-09-09T07:21:07;3.20;;;2.90;;
21615;SDS011;10970;48.714;9.584;2022-09-09T07:23:34;2.93;;;2.37;;
21615;SDS011;10970;48.714;9.584;2022-09-09T07:26:07;4.50;;;2.30;;
21615;SDS011;10970;48.714;9.584;2022-09-09T07:28:34;5.17;;;2.50;;
21615;SDS011;10970;48.714;9.584;2022-09-09T07:31:00;2.83;;;2.63;;
21615;SDS011;10970;48.714;9.584;2022-09-09T07:33:30;4.20;;;3.50;;
21615;SDS011;10970;48.714;9.584;2022-09-09T07:36:13;2.97;;;2.67;;
21615;SDS011;10970;48.714;9.584;2022-09-09T07:38:41;2.77;;;2.57;;
21615;SDS011;10970;48.714;9.584;2022-09-09T07:41:19;2.57;;;2.37;;
21615;SDS011;10970;48.714;9.584;2022-09-09T07:43:47;3.23;;;2.27;;
21615;SDS011;10970;48.714;9.584;2022-09-09T07:46:14;2.10;;;1.80;;
21615;SDS011;10970;48.714;9.584;2022-09-09T07:48:48;4.47;;;2.30;;
21615;SDS011;10970;48.714;9.584;2022-09-09T07:51:17;3.33;;;1.67;;
21615;SDS011;10970;48.714;9.584;2022-09-09T07:53:46;3.40;;;2.00;;
21615;SDS011;10970;48.714;9.584;2022-09-09T07:56:13;1.87;;;1.77;;
21615;SDS011;10970;48.714;9.584;2022-09-09T07:58:41;2.53;;;1.53;;
21615;SDS011;10970;48.714;9.584;2022-09-09T08:01:11;9.73;;;2.07;;
21615;SDS011;10970;48.714;9.584;2022-09-09T08:03:38;1.83;;;1.53;;
21615;SDS011;10970;48.714;9.584;2022-09-09T08:06:05;2.40;;;1.50;;
21615;SDS011;10970;48.714;9.584;2022-09-09T08:08:33;4.10;;;1.70;;
21615;SDS011;10970;48.714;9.584;2022-09-09T08:11:10;2.00;;;1.57;;
21615;SDS011;10970;48.714;9.584;2022-09-09T08:13:38;5.07;;;2.20;;
21615;SDS011;10970;48.714;9.584;2022-09-09T08:16:09;1.60;;;1.50;;
21615;SDS011;10970;48.714;9.584;2022-09-09T08:18:37;2.50;;;1.60;;
21615;SDS011;10970;48.714;9.584;2022-09-09T08:21:04;3.77;;;1.60;;
21615;SDS011;10970;48.714;9.584;2022-09-09T08:23:41;2.53;;;1.60;;
21615;SDS011;10970;48.714;9.584;2022-09-09T08:26:12;4.17;;;2.10;;
21615;SDS011;10970;48.714;9.584;2022-09-09T08:28:40;3.80;;;1.77;;
21615;SDS011;10970;48.714;9.584;2022-09-09T08:31:11;1.53;;;1.37;;
21615;SDS011;10970;48.714;9.584;2022-09-09T08:33:38;2.50;;;1.70;;
21615;SDS011;10970;48.714;9.584;2022-09-09T08:36:06;4.83;;;1.50;;
21615;SDS011;10970;48.714;9.584;2022-09-09T08:38:34;1.40;;;1.23;;
21615;SDS011;10970;48.714;9.584;2022-09-09T08:43:50;2.57;;;1.37;;
21615;SDS011;10970;48.714;9.584;2022-09-09T08:52:13;4.63;;;2.60;;
21615;SDS011;10970;48.714;9.584;2022-09-09T08:54:44;1.30;;;1.20;;
21615;SDS011;10970;48.714;9.584;2022-09-09T08:57:11;2.37;;;1.80;;
21615;SDS011;10970;48.714;9.584;2022-09-09T08:59:43;2.57;;;1.30;;
21615;SDS011;10970;48.714;9.584;2022-09-09T09:02:25;2.20;;;1.47;;
21615;SDS011;10970;48.714;9.584;2022-09-09T09:05:25;1.70;;;1.00;;
21615;SDS011;10970;48.714;9.584;2022-09-09T09:11:03;2.10;;;1.20;;
21615;SDS011;10970;48.714;9.584;2022-09-09T09:13:42;1.00;;;0.90;;
21615;SDS011;10970;48.714;9.584;2022-09-09T09:19:03;4.33;;;1.30;;
21615;SDS011;10970;48.714;9.584;2022-09-09T09:21:43;1.83;;;1.00;;
21615;SDS011;10970;48.714;9.584;2022-09-09T09:24:19;1.27;;;1.10;;
21615;SDS011;10970;48.714;9.584;2022-09-09T09:26:51;2.67;;;1.57;;
21615;SDS011;10970;48.714;9.584;2022-09-09T09:29:18;1.10;;;1.00;;
21615;SDS011;10970;48.714;9.584;2022-09-09T09:31:53;4.30;;;1.10;;
21615;SDS011;10970;48.714;9.584;2022-09-09T09:34:22;2.00;;;1.40;;
21615;SDS011;10970;48.714;9.584;2022-09-09T09:39:23;3.23;;;1.80;;
21615;SDS011;10970;48.714;9.584;2022-09-09T09:41:53;4.57;;;2.10;;
21615;SDS011;10970;48.714;9.584;2022-09-09T09:44:24;4.20;;;2.03;;
21615;SDS011;10970;48.714;9.584;2022-09-09T09:47:04;2.40;;;0.80;;
21615;SDS011;10970;48.714;9.584;2022-09-09T09:49:30;3.90;;;1.13;;
21615;SDS011;10970;48.714;9.584;2022-09-09T09:52:06;4.20;;;0.80;;
21615;SDS011;10970;48.714;9.584;2022-09-09T09:54:41;2.10;;;0.90;;
21615;SDS011;10970;48.714;9.584;2022-09-09T09:57:11;2.90;;;0.90;;
21615;SDS011;10970;48.714;9.584;2022-09-09T09:59:39;1.53;;;0.90;;
21615;SDS011;10970;48.714;9.584;2022-09-09T10:02:15;1.70;;;1.00;;
21615;SDS011;10970;48.714;9.584;2022-09-09T10:04:43;2.20;;;0.83;;
21615;SDS011;10970;48.714;9.584;2022-09-09T10:07:17;1.73;;;1.30;;
21615;SDS011;10970;48.714;9.584;2022-09-09T10:09:44;2.33;;;0.93;;
21615;SDS011;10970;48.714;9.584;2022-09-09T10:14:44;4.30;;;1.37;;
21615;SDS011;10970;48.714;9.584;2022-09-09T10:20:40;2.40;;;1.03;;
21615;SDS011;10970;48.714;9.584;2022-09-09T10:31:34;3.47;;;1.10;;
21615;SDS011;10970;48.714;9.584;2022-09-09T10:40:39;2.23;;;1.00;;
21615;SDS011;10970;48.714;9.584;2022-09-09T10:45:49;1.83;;;0.90;;
21615;SDS011;10970;48.714;9.584;2022-09-09T10:48:28;1.60;;;0.73;;
21615;SDS011;10970;48.714;9.584;2022-09-09T10:57:12;1.83;;;1.00;;
21615;SDS011;10970;48.714;9.584;2022-09-09T10:59:48;1.67;;;0.63;;
21615;SDS011;10970;48.714;9.584;2022-09-09T11:02:25;2.00;;;0.70;;
21615;SDS011;10970;48.714;9.584;2022-09-09T11:04:54;4.20;;;1.30;;
21615;SDS011;10970;48.714;9.584;2022-09-09T11:07:39;3.47;;;1.50;;
21615;SDS011;10970;48.714;9.584;2022-09-09T11:10:17;1.83;;;1.03;;
21615;SDS011;10970;48.714;9.584;2022-09-09T11:12:59;1.33;;;0.63;;
21615;SDS011;10970;48.714;9.584;2022-09-09T11:15:35;2.87;;;0.70;;
21615;SDS011;10970;48.714;9.584;2022-09-09T11:18:06;2.13;;;0.70;;
21615;SDS011;10970;48.714;9.584;2022-09-09T11:20:38;2.10;;;0.70;;
21615;SDS011;10970;48.714;9.584;2022-09-09T11:23:09;2.97;;;0.97;;
21615;SDS011;10970;48.714;9.584;2022-09-09T11:25:43;0.87;;;0.77;;
21615;SDS011;10970;48.714;9.584;2022-09-09T11:31:30;1.53;;;0.67;;
21615;SDS011;10970;48.714;9.584;2022-09-09T11:37:05;2.00;;;0.80;;
21615;SDS011;10970;48.714;9.584;2022-09-09T11:42:39;1.40;;;0.80;;
21615;SDS011;10970;48.714;9.584;2022-09-09T11:45:10;2.33;;;0.83;;
21615;SDS011;10970;48.714;9.584;2022-09-09T11:47:55;1.10;;;0.80;;
21615;SDS011;10970;48.714;9.584;2022-09-09T11:52:48;1.50;;;1.07;;
21615;SDS011;10970;48.714;9.584;2022-09-09T11:57:57;1.00;;;0.67;;
21615;SDS011;10970;48.714;9.584;2022-09-09T12:00:31;3.27;;;0.70;;
21615;SDS011;10970;48.714;9.584;2022-09-09T12:03:02;5.20;;;1.67;;
21615;SDS011;10970;48.714;9.584;2022-09-09T12:05:36;1.90;;;0.63;;
21615;SDS011;10970;48.714;9.584;2022-09-09T12:08:11;2.90;;;0.80;;
21615;SDS011;10970;48.714;9.584;2022-09-09T12:10:54;1.53;;;0.93;;
21615;SDS011;10970;48.714;9.584;2022-09-09T12:13:24;2.27;;;1.40;;
21615;SDS011;10970;48.714;9.584;2022-09-09T12:15:55;2.67;;;1.17;;
21615;SDS011;10970;48.714;9.584;2022-09-09T12:20:57;2.90;;;1.00;;
21615;SDS011;10970;48.714;9.584;2022-09-09T12:29:14;4.40;;;1.20;;
21615;SDS011;10970;48.714;9.584;2022-09-09T12:32:09;1.23;;;0.70;;
21615;SDS011;10970;48.714;9.584;2022-09-09T12:37:20;0.83;;;0.77;;
21615;SDS011;10970;48.714;9.584;2022-09-09T12:39:55;2.40;;;0.80;;
21615;SDS011;10970;48.714;9.584;2022-09-09T12:42:44;1.83;;;0.80;;
21615;SDS011;10970;48.714;9.584;2022-09-09T12:45:19;2.57;;;0.80;;
21615;SDS011;10970;48.714;9.584;2022-09-09T12:48:00;1.47;;;0.70;;
21615;SDS011;10970;48.714;9.584;2022-09-09T12:51:03;2.20;;;0.97;;
21615;SDS011;10970;48.714;9.584;2022-09-09T12:55:56;1.37;;;0.70;;
21615;SDS011;10970;48.714;9.584;2022-09-09T12:58:24;0.90;;;0.70;;
21615;SDS011;10970;48.714;9.584;2022-09-09T13:00:53;0.70;;;0.50;;
21615;SDS011;10970;48.714;9.584;2022-09-09T13:03:23;1.73;;;0.60;;
21615;SDS011;10970;48.714;9.584;2022-09-09T13:05:52;1.00;;;0.70;;
21615;SDS011;10970;48.714;9.584;2022-09-09T13:08:19;0.80;;;0.50;;
21615;SDS011;10970;48.714;9.584;2022-09-09T13:10:51;1.00;;;0.50;;
21615;SDS011;10970;48.714;9.584;2022-09-09T13:13:23;1.10;;;0.77;;
21615;SDS011;10970;48.714;9.584;2022-09-09T13:15:56;1.27;;;0.40;;
21615;SDS011;10970;48.714;9.584;2022-09-09T13:18:24;1.30;;;0.60;;
21615;SDS011;10970;48.714;9.584;2022-09-09T13:21:00;0.50;;;0.40;;
21615;SDS011;10970;48.714;9.584;2022-09-09T13:23:27;1.17;;;0.50;;
21615;SDS011;10970;48.714;9.584;2022-09-09T13:26:01;2.70;;;0.60;;
21615;SDS011;10970;48.714;9.584;2022-09-09T13:28:29;0.80;;;0.50;;
21615;SDS011;10970;48.714;9.584;2022-09-09T13:31:03;0.63;;;0.40;;
21615;SDS011;10970;48.714;9.584;2022-09-09T13:33:35;1.27;;;0.70;;
21615;SDS011;10970;48.714;9.584;2022-09-09T13:36:04;1.77;;;0.70;;
21615;SDS011;10970;48.714;9.584;2022-09-09T13:38:33;1.43;;;0.60;;
21615;SDS011;10970;48.714;9.584;2022-09-09T13:41:06;0.80;;;0.63;;
21615;SDS011;10970;48.714;9.584;2022-09-09T13:43:35;1.00;;;0.70;;
21615;SDS011;10970;48.714;9.584;2022-09-09T13:46:03;1.73;;;0.50;;
21615;SDS011;10970;48.714;9.584;2022-09-09T13:48:31;0.80;;;0.80;;
21615;SDS011;10970;48.714;9.584;2022-09-09T13:50:57;3.47;;;0.87;;
21615;SDS011;10970;48.714;9.584;2022-09-09T13:53:25;2.57;;;0.80;;
21615;SDS011;10970;48.714;9.584;2022-09-09T13:55:51;1.10;;;0.90;;
21615;SDS011;10970;48.714;9.584;2022-09-09T13:58:17;1.80;;;0.83;;
21615;SDS011;10970;48.714;9.584;2022-09-09T14:00:44;2.50;;;0.80;;
21615;SDS011;10970;48.714;9.584;2022-09-09T14:03:10;3.17;;;1.07;;
21615;SDS011;10970;48.714;9.584;2022-09-09T14:05:36;0.70;;;0.50;;
21615;SDS011;10970;48.714;9.584;2022-09-09T14:08:06;2.20;;;0.80;;
21615;SDS011;10970;48.714;9.584;2022-09-09T14:10:32;1.73;;;0.50;;
21615;SDS011;10970;48.714;9.584;2022-09-09T14:13:02;1.63;;;0.57;;
21615;SDS011;10970;48.714;9.584;2022-09-09T14:15:28;1.17;;;0.60;;
21615;SDS011;10970;48.714;9.584;2022-09-09T14:17:54;1.93;;;0.70;;
21615;SDS011;10970;48.714;9.584;2022-09-09T14:20:19;3.20;;;0.77;;
21615;SDS011;10970;48.714;9.584;2022-09-09T14:22:45;4.00;;;1.23;;
21615;SDS011;10970;48.714;9.584;2022-09-09T14:25:11;1.03;;;0.60;;
21615;SDS011;10970;48.714;9.584;2022-09-09T14:27:38;3.37;;;0.93;;
21615;SDS011;10970;48.714;9.584;2022-09-09T14:30:04;1.50;;;0.60;;
21615;SDS011;10970;48.714;9.584;2022-09-09T14:32:31;2.30;;;0.60;;
21615;SDS011;10970;48.714;9.584;2022-09-09T14:34:56;2.20;;;0.77;;
21615;SDS011;10970;48.714;9.584;2022-09-09T14:37:22;1.63;;;0.70;;
21615;SDS011;10970;48.714;9.584;2022-09-09T14:39:48;2.00;;;0.60;;
21615;SDS011;10970;48.714;9.584;2022-09-09T14:42:15;1.97;;;0.90;;
21615;SDS011;10970;48.714;9.584;2022-09-09T14:44:41;1.83;;;0.90;;
21615;SDS011;10970;48.714;9.584;2022-09-09T14:47:07;1.90;;;0.50;;
21615;SDS011;10970;48.714;9.584;2022-09-09T14:49:37;0.70;;;0.60;;
21615;SDS011;10970;48.714;9.584;2022-09-09T14:52:03;1.50;;;0.60;;
21615;SDS011;10970;48.714;9.584;2022-09-09T14:54:31;2.70;;;0.87;;
21615;SDS011;10970;48.714;9.584;2022-09-09T14:56:57;3.00;;;0.63;;
21615;SDS011;10970;48.714;9.584;2022-09-09T14:59:23;1.10;;;0.60;;
21615;SDS011;10970;48.714;9.584;2022-09-09T15:01:48;1.07;;;0.50;;
21615;SDS011;10970;48.714;9.584;2022-09-09T15:04:14;5.73;;;0.63;;
21615;SDS011;10970;48.714;9.584;2022-09-09T15:06:41;1.30;;;0.50;;
21615;SDS011;10970;48.714;9.584;2022-09-09T15:09:09;2.83;;;0.57;;
21615;SDS011;10970;48.714;9.584;2022-09-09T15:11:36;1.80;;;0.70;;
21615;SDS011;10970;48.714;9.584;2022-09-09T15:14:06;1.47;;;0.70;;
21615;SDS011;10970;48.714;9.584;2022-09-09T15:16:33;1.27;;;0.63;;
21615;SDS011;10970;48.714;9.584;2022-09-09T15:18:59;0.77;;;0.50;;
21615;SDS011;10970;48.714;9.584;2022-09-09T15:21:27;1.63;;;0.60;;
21615;SDS011;10970;48.714;9.584;2022-09-09T15:23:54;2.33;;;0.73;;
21615;SDS011;10970;48.714;9.584;2022-09-09T15:26:21;2.30;;;0.70;;
21615;SDS011;10970;48.714;9.584;2022-09-09T15:28:47;1.13;;;0.53;;
21615;SDS011;10970;48.714;9.584;2022-09-09T15:31:20;1.00;;;0.60;;
21615;SDS011;10970;48.714;9.584;2022-09-09T15:33:48;2.27;;;1.00;;
21615;SDS011;10970;48.714;9.584;2022-09-09T15:36:24;1.20;;;0.80;;
21615;SDS011;10970;48.714;9.584;2022-09-09T15:38:53;1.13;;;0.60;;
21615;SDS011;10970;48.714;9.584;2022-09-09T15:41:20;2.10;;;0.90;;
21615;SDS011;10970;48.714;9.584;2022-09-09T15:43:48;1.17;;;0.70;;
21615;SDS011;10970;48.714;9.584;2022-09-09T15:48:52;2.47;;;0.60;;
21615;SDS011;10970;48.714;9.584;2022-09-09T15:51:22;1.27;;;0.90;;
21615;SDS011;10970;48.714;9.584;2022-09-09T15:53:56;0.93;;;0.50;;
21615;SDS011;10970;48.714;9.584;2022-09-09T15:56:23;1.37;;;0.50;;
21615;SDS011;10970;48.714;9.584;2022-09-09T15:58:50;0.90;;;0.70;;
21615;SDS011;10970;48.714;9.584;2022-09-09T16:01:17;0.93;;;0.60;;
21615;SDS011;10970;48.714;9.584;2022-09-09T16:03:44;4.73;;;1.33;;
21615;SDS011;10970;48.714;9.584;2022-09-09T16:06:15;1.00;;;0.60;;
21615;SDS011;10970;48.714;9.584;2022-09-09T16:08:44;1.33;;;0.50;;
21615;SDS011;10970;48.714;9.584;2022-09-09T16:11:16;2.20;;;0.50;;
21615;SDS011;10970;48.714;9.584;2022-09-09T16:13:47;0.83;;;0.50;;
21615;SDS011;10970;48.714;9.584;2022-09-09T16:16:15;2.33;;;0.63;;
21615;SDS011;10970;48.714;9.584;2022-09-09T16:18:46;1.97;;;0.70;;
21615;SDS011;10970;48.714;9.584;2022-09-09T16:21:18;0.80;;;0.50;;
21615;SDS011;10970;48.714;9.584;2022-09-09T16:23:45;1.80;;;0.70;;
21615;SDS011;10970;48.714;9.584;2022-09-09T16:26:12;0.97;;;0.53;;
21615;SDS011;10970;48.714;9.584;2022-09-09T16:28:39;0.90;;;0.70;;
21615;SDS011;10970;48.714;9.584;2022-09-09T16:31:09;0.70;;;0.50;;
21615;SDS011;10970;48.714;9.584;2022-09-09T16:33:38;2.20;;;0.60;;
21615;SDS011;10970;48.714;9.584;2022-09-09T16:36:09;0.60;;;0.50;;
21615;SDS011;10970;48.714;9.584;2022-09-09T16:38:39;0.83;;;0.50;;
21615;SDS011;10970;48.714;9.584;2022-09-09T16:41:06;2.70;;;0.60;;
21615;SDS011;10970;48.714;9.584;2022-09-09T16:43:32;1.17;;;0.70;;
21615;SDS011;10970;48.714;9.584;2022-09-09T16:45:59;1.03;;;0.50;;
21615;SDS011;10970;48.714;9.584;2022-09-09T16:48:31;0.90;;;0.43;;
21615;SDS011;10970;48.714;9.584;2022-09-09T16:51:02;2.00;;;0.50;;
21615;SDS011;10970;48.714;9.584;2022-09-09T16:53:32;1.07;;;0.60;;
21615;SDS011;10970;48.714;9.584;2022-09-09T16:56:04;0.90;;;0.50;;
21615;SDS011;10970;48.714;9.584;2022-09-09T16:58:31;0.60;;;0.40;;
21615;SDS011;10970;48.714;9.584;2022-09-09T17:01:00;2.73;;;0.90;;
21615;SDS011;10970;48.714;9.584;2022-09-09T17:03:27;1.70;;;0.63;;
21615;SDS011;10970;48.714;9.584;2022-09-09T17:05:52;0.80;;;0.50;;
21615;SDS011;10970;48.714;9.584;2022-09-09T17:08:18;0.80;;;0.50;;
21615;SDS011;10970;48.714;9.584;2022-09-09T17:10:44;2.57;;;0.47;;
21615;SDS011;10970;48.714;9.584;2022-09-09T17:13:10;2.93;;;0.80;;